createdAt,value
2023-03-29T00:01:35.679Z,101909.97
2023-03-29T00:04:04.738Z,101906.28
2023-03-29T00:06:33.461Z,101886.16
2023-03-29T00:09:01.989Z,101892.59
2023-03-29T00:11:29.156Z,101912.66
2023-03-29T00:13:56.343Z,101918.63
2023-03-29T00:16:23.605Z,101863.47
2023-03-29T00:18:50.870Z,101899.28
2023-03-29T00:21:18.105Z,101832.63
2023-03-29T00:23:45.235Z,101881.50
2023-03-29T00:26:12.492Z,101909.16
2023-03-29T00:28:39.596Z,101911.91
2023-03-29T00:31:10.247Z,101897.44
2023-03-29T00:33:37.988Z,101910.56
2023-03-29T00:36:06.567Z,101880.34
2023-03-29T00:38:33.835Z,101915.34
2023-03-29T00:41:01.428Z,101900.50
2023-03-29T00:43:28.833Z,101913.06
2023-03-29T00:45:56.389Z,101893.84
2023-03-29T00:48:30.174Z,101890.59
2023-03-29T00:51:04.213Z,101884.16
2023-03-29T00:53:38.635Z,101905.88
2023-03-29T00:56:24.484Z,101923.53
2023-03-29T00:59:03.850Z,101918.72
2023-03-29T01:01:45.471Z,101916.59
2023-03-29T01:04:21.938Z,101913.28
2023-03-29T01:07:25.762Z,101906.06
2023-03-29T01:10:12.961Z,101935.38
2023-03-29T01:12:50.493Z,101927.00
2023-03-29T01:15:22.576Z,101939.09
2023-03-29T01:17:53.702Z,101875.84
2023-03-29T01:20:43.611Z,101931.72
2023-03-29T01:23:29.456Z,101939.44
2023-03-29T01:26:38.783Z,101943.50
2023-03-29T01:29:34.408Z,101932.97
2023-03-29T01:32:13.403Z,101917.69
2023-03-29T01:34:58.758Z,101927.44
2023-03-29T01:37:53.056Z,101921.25
2023-03-29T01:40:20.178Z,101911.19
2023-03-29T01:43:21.579Z,101924.16
2023-03-29T01:46:01.446Z,101926.53
2023-03-29T01:48:51.869Z,101949.84
2023-03-29T01:51:28.355Z,101943.53
2023-03-29T01:54:17.555Z,101918.16
2023-03-29T01:56:49.133Z,101908.53
2023-03-29T01:59:22.760Z,101883.13
2023-03-29T02:01:54.501Z,101938.22
2023-03-29T02:04:29.345Z,101937.81
2023-03-29T02:07:00.209Z,101942.53
2023-03-29T02:09:28.929Z,101935.69
2023-03-29T02:11:59.942Z,101920.50
2023-03-29T02:14:27.720Z,101950.38
2023-03-29T02:16:54.810Z,101921.94
2023-03-29T02:19:25.361Z,101945.19
2023-03-29T02:22:10.385Z,101908.53
2023-03-29T02:24:40.907Z,101933.22
2023-03-29T02:27:08.714Z,101935.19
2023-03-29T02:29:36.194Z,101932.72
2023-03-29T02:32:08.981Z,101927.13
2023-03-29T02:35:13.252Z,101959.78
2023-03-29T02:37:45.232Z,101942.03
2023-03-29T02:40:15.173Z,101943.72
2023-03-29T02:42:45.897Z,101962.69
2023-03-29T02:45:16.232Z,101951.06
2023-03-29T02:47:49.793Z,101958.25
2023-03-29T02:50:17.625Z,101959.28
2023-03-29T02:52:53.424Z,101953.34
2023-03-29T02:55:23.735Z,101955.72
2023-03-29T02:57:50.977Z,101957.72
2023-03-29T03:00:23.341Z,101961.38
2023-03-29T03:02:51.939Z,101961.34
2023-03-29T03:05:19.534Z,101925.06
2023-03-29T03:07:47.225Z,101978.03
2023-03-29T03:10:14.726Z,101973.03
2023-03-29T03:12:42.136Z,101958.25
2023-03-29T03:15:09.832Z,101966.03
2023-03-29T03:17:41.248Z,101958.31
2023-03-29T03:20:13.260Z,101971.63
2023-03-29T03:22:49.398Z,101945.34
2023-03-29T03:25:19.668Z,101946.19
2023-03-29T03:27:48.720Z,101981.59
2023-03-29T03:30:18.629Z,101949.84
2023-03-29T03:33:04.368Z,101966.66
2023-03-29T03:36:06.227Z,101980.50
2023-03-29T03:38:36.332Z,101945.44
2023-03-29T03:41:05.871Z,101973.09
2023-03-29T03:43:35.121Z,101977.94
2023-03-29T03:46:02.731Z,101981.91
2023-03-29T03:48:30.699Z,101971.56
2023-03-29T03:51:27.226Z,101961.84
2023-03-29T03:53:54.736Z,101968.94
2023-03-29T03:56:34.444Z,101941.06
2023-03-29T03:59:07.412Z,101971.66
2023-03-29T04:01:58.322Z,101964.50
2023-03-29T04:04:26.085Z,101946.06
2023-03-29T04:07:18.102Z,101981.16
2023-03-29T04:09:57.391Z,101984.38
2023-03-29T04:12:40.021Z,101989.56
2023-03-29T04:15:09.138Z,101997.16
2023-03-29T04:17:37.297Z,101995.25
2023-03-29T04:20:33.659Z,102006.50
2023-03-29T04:23:01.676Z,101987.84
2023-03-29T04:25:29.701Z,101996.06
2023-03-29T04:27:59.723Z,102006.50
2023-03-29T04:30:52.424Z,102011.84
2023-03-29T04:33:40.269Z,101996.38
2023-03-29T04:36:09.449Z,102016.53
2023-03-29T04:38:36.588Z,101990.72
2023-03-29T04:41:05.083Z,102012.75
2023-03-29T04:43:53.829Z,102015.31
2023-03-29T04:46:26.919Z,102003.94
2023-03-29T04:49:12.873Z,102015.09
2023-03-29T04:51:43.616Z,102020.72
2023-03-29T04:54:11.703Z,102017.06
2023-03-29T04:56:55.287Z,101998.09
2023-03-29T04:59:48.868Z,101987.97
2023-03-29T05:02:34.585Z,102028.00
2023-03-29T05:05:02.590Z,102016.75
2023-03-29T05:07:30.689Z,102011.94
2023-03-29T05:09:58.501Z,102012.00
2023-03-29T05:12:26.039Z,102015.25
2023-03-29T05:14:54.522Z,102037.84
2023-03-29T05:17:27.566Z,102045.06
2023-03-29T05:20:01.168Z,102025.78
2023-03-29T05:22:29.869Z,102025.00
2023-03-29T05:24:57.674Z,102032.88
2023-03-29T05:27:25.624Z,102043.69
2023-03-29T05:30:02.682Z,102029.03
2023-03-29T05:32:38.314Z,102043.66
2023-03-29T05:35:07.283Z,102020.88
2023-03-29T05:37:35.368Z,101978.38
2023-03-29T05:40:10.871Z,101994.38
2023-03-29T05:43:02.704Z,102061.31
2023-03-29T05:45:30.210Z,102065.91
2023-03-29T05:47:58.153Z,102049.38
2023-03-29T05:50:25.534Z,102043.50
2023-03-29T05:52:53.188Z,102053.16
2023-03-29T05:55:20.427Z,102082.69
2023-03-29T05:57:47.728Z,102075.06
2023-03-29T06:00:25.878Z,102056.25
2023-03-29T06:03:17.689Z,102029.38
2023-03-29T06:05:49.786Z,102088.56
2023-03-29T06:08:17.773Z,102083.81
2023-03-29T06:11:17.797Z,102079.09
2023-03-29T06:14:03.622Z,102077.88
2023-03-29T06:16:32.687Z,102055.31
2023-03-29T06:18:59.936Z,102061.44
2023-03-29T06:21:29.168Z,102087.25
2023-03-29T06:23:56.952Z,102098.19
2023-03-29T06:26:27.803Z,102107.03
2023-03-29T06:28:55.018Z,102084.44
2023-03-29T06:31:22.241Z,102080.41
2023-03-29T06:33:51.781Z,102090.56
2023-03-29T06:36:32.858Z,102098.38
2023-03-29T06:39:00.134Z,102084.69
2023-03-29T06:41:47.578Z,102109.31
2023-03-29T06:44:49.724Z,102102.19
2023-03-29T06:47:19.718Z,102071.59
2023-03-29T06:49:46.918Z,102106.66
2023-03-29T06:52:29.816Z,102104.25
2023-03-29T06:54:57.067Z,102105.13
2023-03-29T06:57:25.943Z,102093.47
2023-03-29T06:59:54.030Z,102094.56
2023-03-29T07:02:24.417Z,102103.84
2023-03-29T07:04:56.380Z,102077.72
2023-03-29T07:07:53.606Z,102108.00
2023-03-29T07:10:47.651Z,102110.03
2023-03-29T07:13:53.452Z,102101.16
2023-03-29T07:16:21.896Z,102090.34
2023-03-29T07:19:15.595Z,102102.06
2023-03-29T07:21:53.513Z,102101.63
2023-03-29T07:24:23.824Z,102094.88
2023-03-29T07:27:03.133Z,102112.56
2023-03-29T07:29:32.948Z,102143.97
2023-03-29T07:32:00.380Z,102080.41
2023-03-29T07:34:55.216Z,102118.19
2023-03-29T07:37:28.657Z,102135.50
2023-03-29T07:39:57.728Z,102106.16
2023-03-29T07:42:46.948Z,102143.19
2023-03-29T07:45:26.846Z,102119.91
2023-03-29T07:48:08.997Z,102076.78
2023-03-29T07:50:49.584Z,102118.63
2023-03-29T07:53:19.825Z,102122.31
2023-03-29T07:55:48.891Z,102125.13
2023-03-29T07:58:46.695Z,102117.91
2023-03-29T08:01:18.843Z,102132.41
2023-03-29T08:04:10.068Z,102063.56
2023-03-29T08:06:55.863Z,102121.91
2023-03-29T08:09:29.243Z,102134.00
2023-03-29T08:11:57.818Z,102127.97
2023-03-29T08:14:31.794Z,102125.56
2023-03-29T08:17:04.904Z,101982.31
2023-03-29T08:19:35.974Z,102099.81
2023-03-29T08:22:05.563Z,102113.09
2023-03-29T08:25:07.025Z,102109.44
2023-03-29T08:27:39.842Z,102127.91
2023-03-29T08:30:10.496Z,102117.06
2023-03-29T08:32:39.429Z,102057.16
2023-03-29T08:35:09.712Z,102115.06
2023-03-29T08:37:55.622Z,102122.69
2023-03-29T08:40:27.366Z,102127.13
2023-03-29T08:43:46.584Z,102124.72
2023-03-29T08:46:33.113Z,102111.75
2023-03-29T08:49:13.167Z,102112.50
2023-03-29T08:51:46.561Z,102114.16
2023-03-29T08:54:34.057Z,102127.03
2023-03-29T08:57:17.928Z,102112.19
2023-03-29T08:59:52.994Z,102086.03
2023-03-29T09:02:24.872Z,102115.72
2023-03-29T09:05:02.940Z,102118.97
2023-03-29T09:07:42.220Z,102116.06
2023-03-29T09:10:16.064Z,102126.09
2023-03-29T09:12:52.896Z,102131.28
2023-03-29T09:15:34.841Z,102125.16
2023-03-29T09:18:43.912Z,102122.75
2023-03-29T09:21:52.983Z,102122.03
2023-03-29T09:24:58.197Z,102120.25
2023-03-29T09:27:44.380Z,102098.59
2023-03-29T09:30:28.682Z,102112.25
2023-03-29T09:33:12.307Z,102096.97
2023-03-29T09:36:10.622Z,102113.00
2023-03-29T09:38:42.726Z,102113.78
2023-03-29T09:41:22.008Z,102097.56
2023-03-29T09:43:52.347Z,102110.28
2023-03-29T09:46:30.471Z,102080.06
2023-03-29T09:48:58.031Z,102093.97
2023-03-29T09:51:28.033Z,102095.28
2023-03-29T09:53:57.511Z,102084.66
2023-03-29T09:56:36.816Z,102055.13
2023-03-29T09:59:12.636Z,102077.09
2023-03-29T10:01:45.337Z,102059.97
2023-03-29T10:04:16.942Z,102080.88
2023-03-29T10:06:52.441Z,102068.63
2023-03-29T10:09:22.868Z,102066.66
2023-03-29T10:12:02.349Z,102095.34
2023-03-29T10:14:42.690Z,102083.91
2023-03-29T10:17:24.822Z,102061.22
2023-03-29T10:20:18.810Z,102011.22
2023-03-29T10:22:48.406Z,102046.56
2023-03-29T10:25:18.435Z,102039.03
2023-03-29T10:27:48.074Z,102045.53
2023-03-29T10:30:24.382Z,102039.78
2023-03-29T10:32:58.164Z,102050.50
2023-03-29T10:35:51.841Z,102049.16
2023-03-29T10:38:23.075Z,102048.84
2023-03-29T10:40:53.249Z,102041.91
2023-03-29T10:43:23.255Z,102032.63
2023-03-29T10:45:52.622Z,102054.69
2023-03-29T10:48:26.088Z,102039.66
2023-03-29T10:50:53.373Z,102039.94
2023-03-29T10:53:29.424Z,102030.59
2023-03-29T10:56:16.458Z,102018.53
2023-03-29T10:59:11.486Z,102010.41
2023-03-29T11:01:51.694Z,102024.28
2023-03-29T11:04:29.617Z,102008.47
2023-03-29T11:07:15.678Z,102017.88
2023-03-29T11:09:52.805Z,102017.19
2023-03-29T11:12:32.174Z,102017.69
2023-03-29T11:15:27.363Z,102003.75
2023-03-29T11:18:23.066Z,102007.84
2023-03-29T11:21:15.337Z,102012.03
2023-03-29T11:24:18.403Z,101992.31
2023-03-29T11:27:11.949Z,101998.78
2023-03-29T11:30:00.506Z,102001.38
2023-03-29T11:32:38.723Z,102013.50
2023-03-29T11:35:31.793Z,101987.19
2023-03-29T11:38:16.070Z,101985.78
2023-03-29T11:40:55.294Z,101980.28
2023-03-29T11:43:41.580Z,101978.75
2023-03-29T11:46:13.997Z,101982.94
2023-03-29T11:48:57.058Z,101976.41
2023-03-29T11:51:27.134Z,101978.38
2023-03-29T11:54:03.703Z,101964.69
2023-03-29T11:56:41.404Z,101979.13
2023-03-29T11:59:41.099Z,101961.81
2023-03-29T12:02:36.814Z,101977.84
2023-03-29T12:05:13.911Z,101959.78
2023-03-29T12:08:05.691Z,101962.81
2023-03-29T12:10:42.094Z,101969.53
2023-03-29T12:13:21.299Z,101933.28
2023-03-29T12:16:00.438Z,101969.78
2023-03-29T12:18:33.011Z,101945.91
2023-03-29T12:21:04.056Z,101923.56
2023-03-29T12:23:34.196Z,101971.06
2023-03-29T12:26:17.301Z,101976.53
2023-03-29T12:29:07.240Z,101977.06
2023-03-29T12:31:37.386Z,101970.22
2023-03-29T12:34:37.110Z,101950.28
2023-03-29T12:37:47.086Z,101950.47
2023-03-29T12:40:44.210Z,101942.31
2023-03-29T12:43:37.774Z,101950.50
2023-03-29T12:46:27.009Z,101927.00
2023-03-29T12:49:05.956Z,101963.69
2023-03-29T12:51:35.299Z,101937.72
2023-03-29T12:54:31.211Z,101944.56
2023-03-29T12:57:18.864Z,101945.50
2023-03-29T12:59:49.182Z,101953.25
2023-03-29T13:02:17.873Z,101941.63
2023-03-29T13:04:56.106Z,101953.81
2023-03-29T13:07:23.219Z,101933.91
2023-03-29T13:09:52.992Z,101924.06
2023-03-29T13:12:30.243Z,101934.56
2023-03-29T13:15:02.542Z,101891.53
2023-03-29T13:17:45.239Z,101936.00
2023-03-29T13:20:37.631Z,101947.16
2023-03-29T13:23:42.498Z,101927.91
2023-03-29T13:26:45.828Z,101934.38
2023-03-29T13:29:51.429Z,101920.34
2023-03-29T13:32:54.060Z,101903.66
2023-03-29T13:35:34.337Z,101924.25
2023-03-29T13:38:26.371Z,101934.91
2023-03-29T13:40:53.512Z,101926.72
2023-03-29T13:43:31.560Z,101914.72
2023-03-29T13:45:58.691Z,101931.53
2023-03-29T13:48:29.743Z,101925.31
2023-03-29T13:51:01.208Z,101909.88
2023-03-29T13:53:37.420Z,101927.28
2023-03-29T13:56:08.531Z,101928.09
2023-03-29T13:58:45.013Z,101910.47
2023-03-29T14:01:19.914Z,101916.31
2023-03-29T14:03:51.968Z,101910.97
2023-03-29T14:06:32.494Z,101923.25
2023-03-29T14:09:06.480Z,101926.22
2023-03-29T14:11:33.982Z,101896.97
2023-03-29T14:14:05.235Z,101924.59
2023-03-29T14:16:36.999Z,101914.50
2023-03-29T14:19:11.964Z,101928.72
2023-03-29T14:21:41.470Z,101933.13
2023-03-29T14:24:12.978Z,101926.16
2023-03-29T14:26:44.962Z,101947.09
2023-03-29T14:29:12.309Z,101879.19
2023-03-29T14:31:42.157Z,101931.72
2023-03-29T14:34:18.589Z,101898.34
2023-03-29T14:36:49.084Z,101926.94
2023-03-29T14:39:21.193Z,101925.78
2023-03-29T14:41:53.381Z,101873.97
2023-03-29T14:44:22.642Z,101920.97
2023-03-29T14:46:50.063Z,101898.84
2023-03-29T14:49:19.957Z,101924.56
2023-03-29T14:51:48.305Z,101901.31
2023-03-29T14:54:32.017Z,101927.09
2023-03-29T14:57:03.728Z,101928.56
2023-03-29T14:59:41.470Z,101898.28
2023-03-29T15:02:27.220Z,101922.81
2023-03-29T15:05:05.325Z,101921.63
2023-03-29T15:07:34.803Z,101936.81
2023-03-29T15:10:05.280Z,101896.44
2023-03-29T15:12:33.984Z,101927.88
2023-03-29T15:15:02.783Z,101916.72
2023-03-29T15:17:51.009Z,101923.13
2023-03-29T15:20:23.434Z,101921.31
2023-03-29T15:23:04.183Z,101848.13
2023-03-29T15:25:38.307Z,101915.63
2023-03-29T15:28:06.427Z,101923.69
2023-03-29T15:30:46.262Z,101925.44
2023-03-29T15:33:20.516Z,101919.59
2023-03-29T15:35:52.011Z,101931.44
2023-03-29T15:38:27.484Z,101891.13
2023-03-29T15:41:01.615Z,101931.66
2023-03-29T15:43:29.110Z,101922.88
2023-03-29T15:45:57.044Z,101896.94
2023-03-29T15:48:28.575Z,101933.38
2023-03-29T15:50:57.185Z,101922.44
2023-03-29T15:53:25.549Z,101887.78
2023-03-29T15:55:55.103Z,101935.63
2023-03-29T15:58:29.334Z,101941.50
2023-03-29T16:01:19.415Z,101906.22
2023-03-29T16:03:48.026Z,101931.28
2023-03-29T16:06:17.721Z,101946.88
2023-03-29T16:08:45.005Z,101948.06
2023-03-29T16:11:12.296Z,101977.34
2023-03-29T16:13:39.555Z,101899.13
2023-03-29T16:16:07.872Z,101959.38
2023-03-29T16:18:36.041Z,101920.91
2023-03-29T16:21:03.841Z,101922.94
2023-03-29T16:23:31.206Z,101958.78
2023-03-29T16:25:59.436Z,101965.19
2023-03-29T16:28:26.562Z,101956.50
2023-03-29T16:30:53.654Z,101909.41
2023-03-29T16:33:21.186Z,101947.47
2023-03-29T16:35:48.352Z,101955.13
2023-03-29T16:38:15.621Z,101946.88
2023-03-29T16:40:42.939Z,101939.59
2023-03-29T16:43:16.268Z,101941.28
2023-03-29T16:45:43.793Z,101977.88
2023-03-29T16:48:18.179Z,101972.59
2023-03-29T16:50:49.595Z,101954.22
2023-03-29T16:53:18.611Z,101955.94
2023-03-29T16:55:46.902Z,101986.28
2023-03-29T16:58:15.514Z,101979.97
2023-03-29T17:00:46.341Z,101986.69
2023-03-29T17:03:16.437Z,101975.56
2023-03-29T17:05:54.070Z,101984.78
2023-03-29T17:08:22.212Z,101986.84
2023-03-29T17:10:54.110Z,101995.25
2023-03-29T17:13:24.047Z,101988.28
2023-03-29T17:15:52.614Z,101993.88
2023-03-29T17:18:21.222Z,102004.97
2023-03-29T17:20:50.972Z,102006.16
2023-03-29T17:23:18.237Z,102010.88
2023-03-29T17:25:45.646Z,101980.88
2023-03-29T17:28:12.938Z,101982.06
2023-03-29T17:30:40.434Z,102023.38
2023-03-29T17:33:08.308Z,101993.53
2023-03-29T17:35:35.775Z,102027.41
2023-03-29T17:38:03.028Z,102026.19
2023-03-29T17:40:30.255Z,102002.69
2023-03-29T17:42:57.742Z,102024.63
2023-03-29T17:45:24.921Z,102046.94
2023-03-29T17:47:52.099Z,102026.53
2023-03-29T17:50:19.312Z,102031.38
2023-03-29T17:52:46.611Z,102010.25
2023-03-29T17:55:13.906Z,101999.50
2023-03-29T17:57:42.417Z,102035.63
2023-03-29T18:00:14.537Z,101921.72
2023-03-29T18:02:44.777Z,102011.31
2023-03-29T18:05:12.238Z,102039.84
2023-03-29T18:07:39.492Z,102007.41
2023-03-29T18:10:08.313Z,102032.69
2023-03-29T18:12:36.358Z,102008.31
2023-03-29T18:15:03.843Z,102026.41
2023-03-29T18:17:31.792Z,102006.41
2023-03-29T18:22:26.188Z,102005.63
2023-03-29T18:24:55.050Z,102009.34
2023-03-29T18:27:22.189Z,102053.94
2023-03-29T18:29:49.379Z,102047.94
2023-03-29T18:32:16.636Z,102040.31
2023-03-29T18:34:43.972Z,102050.00
2023-03-29T18:37:15.052Z,102047.59
2023-03-29T18:39:42.965Z,102056.53
2023-03-29T18:42:12.267Z,102070.19
2023-03-29T18:44:43.383Z,101962.97
2023-03-29T18:47:10.741Z,102054.19
2023-03-29T18:49:37.926Z,102057.41
2023-03-29T18:52:05.963Z,101971.44
2023-03-29T18:54:33.102Z,102051.03
2023-03-29T18:57:00.839Z,102055.09
2023-03-29T18:59:28.107Z,102027.78
2023-03-29T19:01:55.883Z,102046.72
2023-03-29T19:04:25.065Z,102045.13
2023-03-29T19:06:54.255Z,102060.88
2023-03-29T19:09:21.629Z,102045.53
2023-03-29T19:11:48.981Z,102033.50
2023-03-29T19:14:17.494Z,102012.22
2023-03-29T19:16:44.564Z,102030.75
2023-03-29T19:19:12.907Z,102048.41
2023-03-29T19:21:41.396Z,102034.75
2023-03-29T19:24:08.867Z,102053.22
2023-03-29T19:26:36.101Z,101980.94
2023-03-29T19:29:03.519Z,102056.47
2023-03-29T19:31:31.916Z,102001.00
2023-03-29T19:33:59.574Z,102046.41
2023-03-29T19:36:26.601Z,102049.59
2023-03-29T19:38:54.302Z,102029.50
2023-03-29T19:41:22.241Z,102039.53
2023-03-29T19:43:49.327Z,102053.25
2023-03-29T19:46:16.616Z,101964.44
2023-03-29T19:48:43.829Z,102036.69
2023-03-29T19:51:10.983Z,102019.00
2023-03-29T19:53:39.136Z,102035.38
2023-03-29T19:56:07.921Z,102030.94
2023-03-29T19:58:35.110Z,102003.66
2023-03-29T20:01:02.616Z,101994.81
2023-03-29T20:03:30.019Z,102022.94
2023-03-29T20:05:57.509Z,102014.94
2023-03-29T20:08:27.354Z,102024.97
2023-03-29T20:11:03.743Z,102048.25
2023-03-29T20:13:38.188Z,102047.75
2023-03-29T20:16:08.134Z,102055.78
2023-03-29T20:18:38.395Z,102022.53
2023-03-29T20:21:09.428Z,101994.78
2023-03-29T20:23:36.699Z,102064.25
2023-03-29T20:26:03.902Z,102055.41
2023-03-29T20:28:31.634Z,102057.56
2023-03-29T20:31:03.747Z,102051.50
2023-03-29T20:33:31.099Z,102004.50
2023-03-29T20:35:58.517Z,102047.06
2023-03-29T20:38:26.083Z,102029.47
2023-03-29T20:40:53.780Z,102052.81
2023-03-29T20:43:21.196Z,102045.19
2023-03-29T20:45:53.825Z,102052.06
2023-03-29T20:48:24.410Z,102043.97
2023-03-29T20:50:51.894Z,102040.34
2023-03-29T20:53:20.715Z,102001.78
2023-03-29T20:55:48.302Z,102039.53
2023-03-29T20:58:16.002Z,102016.66
2023-03-29T21:00:43.993Z,102009.47
2023-03-29T21:03:11.643Z,101994.63
2023-03-29T21:05:39.061Z,102054.50
2023-03-29T21:08:06.410Z,102051.75
2023-03-29T21:10:33.549Z,102042.84
2023-03-29T21:13:02.873Z,102022.31
2023-03-29T21:15:31.098Z,102023.44
2023-03-29T21:17:58.782Z,102051.69
2023-03-29T21:20:26.077Z,102019.09
2023-03-29T21:22:53.207Z,102023.47
2023-03-29T21:25:20.437Z,102025.47
2023-03-29T21:27:47.606Z,102036.66
2023-03-29T21:30:14.843Z,102019.75
2023-03-29T21:32:42.088Z,102031.88
2023-03-29T21:35:09.912Z,101976.56
2023-03-29T21:37:37.058Z,102014.50
2023-03-29T21:40:10.533Z,102046.28
2023-03-29T21:42:37.823Z,102037.00
2023-03-29T21:45:05.461Z,102028.97
2023-03-29T21:47:32.653Z,101998.38
2023-03-29T21:49:59.823Z,102043.31
2023-03-29T21:52:26.945Z,101991.00
2023-03-29T21:54:53.945Z,101959.69
2023-03-29T21:57:21.304Z,102032.47
2023-03-29T21:59:48.564Z,101993.09
2023-03-29T22:02:15.689Z,102026.44
2023-03-29T22:04:42.960Z,102005.50
2023-03-29T22:07:10.835Z,102031.59
2023-03-29T22:09:41.382Z,102024.34
2023-03-29T22:12:10.111Z,102031.16
2023-03-29T22:14:37.425Z,102035.53
2023-03-29T22:17:08.502Z,102037.19
2023-03-29T22:19:39.802Z,101990.13
2023-03-29T22:22:13.700Z,102005.03
2023-03-29T22:24:42.369Z,102007.47
2023-03-29T22:27:11.239Z,102044.09
2023-03-29T22:29:38.353Z,102030.47
2023-03-29T22:32:06.004Z,102026.09
2023-03-29T22:34:33.539Z,101997.56
2023-03-29T22:37:00.593Z,102030.53
2023-03-29T22:39:27.639Z,102032.13
2023-03-29T22:41:54.805Z,102039.38
2023-03-29T22:44:22.374Z,102030.13
2023-03-29T22:46:49.766Z,102039.31
2023-03-29T22:49:16.885Z,101976.22
2023-03-29T22:51:44.022Z,102035.31
2023-03-29T22:54:11.531Z,101922.78
2023-03-29T22:56:38.625Z,102033.72
2023-03-29T22:59:05.748Z,102032.44
2023-03-29T23:01:32.976Z,102038.47
2023-03-29T23:04:00.289Z,102046.91
2023-03-29T23:06:27.573Z,101996.63
2023-03-29T23:08:54.731Z,101984.22
2023-03-29T23:11:21.903Z,102057.00
2023-03-29T23:13:49.127Z,102043.78
2023-03-29T23:16:16.629Z,102043.00
2023-03-29T23:18:43.887Z,102042.59
2023-03-29T23:21:11.010Z,102045.03
2023-03-29T23:23:38.996Z,102047.88
2023-03-29T23:26:08.493Z,102045.88
2023-03-29T23:28:35.777Z,102049.09
2023-03-29T23:31:06.421Z,102032.97
2023-03-29T23:33:35.932Z,102037.81
2023-03-29T23:36:06.110Z,102030.56
2023-03-29T23:38:35.589Z,102022.53
2023-03-29T23:41:05.885Z,102029.75
2023-03-29T23:43:35.468Z,102006.44
2023-03-29T23:46:04.625Z,102025.69
2023-03-29T23:48:32.786Z,102031.66
2023-03-29T23:51:01.311Z,102037.63
2023-03-29T23:53:29.566Z,102006.28
2023-03-29T23:56:01.592Z,102014.25
2023-03-29T23:58:29.962Z,102037.91
